Time;durP1;ratioP1;P1;durP2;ratioP2;P2;SDS_P1;SDS_P2;PMS_P1;PMS_P2;Temp;Humidity;BMP_temperature;BMP_pressure;BME280_temperature;BME280_humidity;BME280_pressure;Samples;Min_cycle;Max_cycle;Signal;HPM_P1;HPM_P2
2020/12/13 00:01:40;;;;;;;16.73;12.40;;;11.40;99.90;;;;;;4719016;30;20586;-77
2020/12/13 00:04:06;;;;;;;18.23;13.40;;;11.40;99.90;;;;;;4748769;30;20179;-77
2020/12/13 00:06:33;;;;;;;15.57;12.40;;;11.40;99.90;;;;;;4752946;30;20206;-77
2020/12/13 00:09:04;;;;;;;17.40;12.60;;;11.40;99.90;;;;;;4750247;30;20207;-77
2020/12/13 00:11:30;;;;;;;18.38;12.77;;;11.50;99.90;;;;;;4755169;30;20895;-77
2020/12/13 00:13:56;;;;;;;15.05;12.70;;;11.50;99.90;;;;;;4767504;30;20183;-77
2020/12/13 00:16:22;;;;;;;17.07;12.70;;;11.50;99.90;;;;;;4767172;30;20191;-77
2020/12/13 00:18:48;;;;;;;18.20;12.50;;;11.50;99.90;;;;;;4750939;30;20577;-77
2020/12/13 00:21:15;;;;;;;14.93;11.80;;;11.50;99.90;;;;;;4767168;30;20329;-77
2020/12/13 00:23:42;;;;;;;13.48;11.57;;;11.50;99.90;;;;;;4751387;30;21217;-77
2020/12/13 00:26:08;;;;;;;16.95;13.20;;;11.50;99.90;;;;;;4767166;30;20291;-77
2020/12/13 00:28:35;;;;;;;14.65;12.02;;;11.50;99.90;;;;;;4766714;30;20544;-77
2020/12/13 00:31:02;;;;;;;14.18;11.93;;;11.50;99.90;;;;;;4766906;30;20722;-77
2020/12/13 00:33:28;;;;;;;14.20;11.07;;;11.50;99.90;;;;;;4767174;30;20179;-77
2020/12/13 00:35:54;;;;;;;15.33;11.23;;;11.60;99.90;;;;;;4750927;30;20225;-77
2020/12/13 00:38:20;;;;;;;13.30;11.17;;;11.60;99.90;;;;;;4766528;30;20167;-77
2020/12/13 00:40:49;;;;;;;14.20;10.52;;;11.60;99.90;;;;;;4750880;30;20586;-77
2020/12/13 00:43:15;;;;;;;16.67;11.63;;;11.60;99.90;;;;;;4768003;30;20178;-77
2020/12/13 00:45:41;;;;;;;15.70;12.20;;;11.60;99.90;;;;;;4771568;30;20838;-77
2020/12/13 00:48:09;;;;;;;17.60;13.20;;;11.60;99.90;;;;;;4766787;30;21221;-77
2020/12/13 00:50:39;;;;;;;13.20;11.77;;;11.60;99.90;;;;;;4750669;30;20628;-77
2020/12/13 00:53:06;;;;;;;14.45;11.55;;;11.60;99.90;;;;;;4752633;30;20199;-77
2020/12/13 00:55:32;;;;;;;13.20;11.80;;;11.60;99.90;;;;;;4770788;30;20222;-78
2020/12/13 00:57:58;;;;;;;14.68;11.40;;;11.60;99.90;;;;;;4754006;30;20175;-78
2020/12/13 01:00:25;;;;;;;12.63;11.17;;;11.60;99.90;;;;;;4770302;30;20182;-77
2020/12/13 01:02:57;;;;;;;14.30;12.10;;;11.60;99.90;;;;;;4770489;30;20607;-78
2020/12/13 01:05:27;;;;;;;16.95;11.77;;;11.60;99.90;;;;;;4754496;30;20289;-77
2020/12/13 01:07:53;;;;;;;15.88;11.65;;;11.60;99.90;;;;;;4724721;30;20183;-77
2020/12/13 01:10:19;;;;;;;12.90;11.17;;;11.60;99.90;;;;;;4770071;30;20264;-77
2020/12/13 01:12:46;;;;;;;14.00;11.52;;;11.60;99.90;;;;;;4770259;30;20172;-77
2020/12/13 01:15:12;;;;;;;13.77;11.50;;;11.60;99.90;;;;;;4756414;30;20212;-77
2020/12/13 01:17:37;;;;;;;14.75;11.43;;;11.60;99.90;;;;;;4750812;30;20263;-77
2020/12/13 01:20:05;;;;;;;14.73;12.00;;;11.60;99.90;;;;;;4752489;30;20259;-77
2020/12/13 01:22:36;;;;;;;13.23;11.82;;;11.60;99.90;;;;;;4755140;30;20702;-77
2020/12/13 01:25:03;;;;;;;14.75;11.90;;;11.60;99.90;;;;;;4751228;30;20306;-77
2020/12/13 01:27:28;;;;;;;15.30;12.38;;;11.60;99.90;;;;;;4751852;30;20192;-77
2020/12/13 01:29:54;;;;;;;15.07;12.20;;;11.50;99.90;;;;;;4752428;30;20497;-77
2020/12/13 01:32:20;;;;;;;12.53;11.23;;;11.50;99.90;;;;;;4736355;30;20255;-77
2020/12/13 01:34:46;;;;;;;11.90;10.27;;;11.50;99.90;;;;;;4752052;30;20199;-77
2020/12/13 01:37:11;;;;;;;12.87;9.97;;;11.50;99.90;;;;;;4721219;30;20557;-77
2020/12/13 01:39:37;;;;;;;11.00;9.27;;;11.50;99.90;;;;;;4752081;30;20172;-77
2020/12/13 01:42:03;;;;;;;13.20;11.20;;;11.50;99.90;;;;;;4735815;30;20214;-77
2020/12/13 01:44:34;;;;;;;13.57;10.80;;;11.50;99.90;;;;;;4750887;30;20191;-77
2020/12/13 01:47:01;;;;;;;13.30;10.77;;;11.50;99.90;;;;;;4736204;30;20601;-77
2020/12/13 01:49:35;;;;;;;13.52;10.63;;;11.50;99.90;;;;;;4751603;30;20553;-77
2020/12/13 01:54:55;;;;;;;13.93;11.02;;;11.50;99.90;;;;;;4752005;30;20196;-77
2020/12/13 01:57:23;;;;;;;13.95;10.60;;;11.50;99.90;;;;;;4751330;30;20216;-77
2020/12/13 01:59:52;;;;;;;12.63;10.90;;;11.50;99.90;;;;;;4752438;30;20644;-77
2020/12/13 02:02:22;;;;;;;12.35;11.05;;;11.50;99.90;;;;;;4751750;30;20172;-77
2020/12/13 02:04:54;;;;;;;12.80;11.02;;;11.50;99.90;;;;;;4750975;30;20200;-77
2020/12/13 02:07:22;;;;;;;12.32;9.88;;;11.50;99.90;;;;;;4751208;30;20537;-77
2020/12/13 02:09:48;;;;;;;12.52;11.13;;;11.50;99.90;;;;;;4735703;30;20271;-77
2020/12/13 02:12:13;;;;;;;13.57;10.90;;;11.50;99.90;;;;;;4735386;30;20616;-77
2020/12/13 02:14:39;;;;;;;13.10;11.80;;;11.50;99.90;;;;;;4721105;30;20206;-77
2020/12/13 02:17:05;;;;;;;14.83;11.13;;;11.50;99.90;;;;;;4751464;30;20657;-77
2020/12/13 02:19:31;;;;;;;14.27;10.93;;;11.60;99.90;;;;;;4750937;30;20635;-77
2020/12/13 02:22:01;;;;;;;14.63;11.27;;;11.60;99.90;;;;;;4751820;30;20176;-77
2020/12/13 02:24:27;;;;;;;13.48;11.80;;;11.60;99.90;;;;;;4750052;30;20607;-77
2020/12/13 02:26:53;;;;;;;12.80;11.37;;;11.60;99.90;;;;;;4735065;30;20188;-77
2020/12/13 02:29:19;;;;;;;14.10;11.37;;;11.60;99.90;;;;;;4749449;30;20188;-77
2020/12/13 02:31:45;;;;;;;16.93;12.77;;;11.60;99.90;;;;;;4751069;30;20199;-77
2020/12/13 02:34:11;;;;;;;13.60;12.20;;;11.60;99.90;;;;;;4751173;30;21138;-77
2020/12/13 02:36:37;;;;;;;13.23;11.23;;;11.60;99.90;;;;;;4754283;30;20219;-77
2020/12/13 02:39:05;;;;;;;13.37;11.57;;;11.60;99.90;;;;;;4749892;30;20585;-82
2020/12/13 02:41:31;;;;;;;13.32;11.55;;;11.60;99.90;;;;;;4750733;30;20585;-82
2020/12/13 02:43:57;;;;;;;13.87;12.37;;;11.60;99.90;;;;;;4735427;30;20190;-82
2020/12/13 02:46:23;;;;;;;13.30;11.17;;;11.60;99.90;;;;;;4735325;30;21189;-82
2020/12/13 02:48:48;;;;;;;12.70;11.30;;;11.60;99.90;;;;;;4734819;30;20180;-82
2020/12/13 02:51:14;;;;;;;12.83;11.40;;;11.50;99.90;;;;;;4735798;30;20215;-82
2020/12/13 02:53:40;;;;;;;14.40;11.03;;;11.60;99.90;;;;;;4751953;30;20287;-82
2020/12/13 02:56:06;;;;;;;14.10;12.60;;;11.50;99.90;;;;;;4756056;30;20732;-82
2020/12/13 02:58:32;;;;;;;15.00;13.03;;;11.50;99.90;;;;;;4734776;30;20775;-82
2020/12/13 03:00:57;;;;;;;13.40;10.87;;;11.50;99.90;;;;;;4750719;30;20613;-82
2020/12/13 03:03:23;;;;;;;12.23;11.00;;;11.50;99.90;;;;;;4750724;30;20545;-83
2020/12/13 03:05:49;;;;;;;15.45;12.27;;;11.50;99.90;;;;;;4734863;30;20666;-82
2020/12/13 03:08:15;;;;;;;13.87;12.40;;;11.50;99.90;;;;;;4750652;30;20180;-82
2020/12/13 03:10:41;;;;;;;15.20;11.90;;;11.50;99.90;;;;;;4750513;30;20719;-82
2020/12/13 03:13:06;;;;;;;12.30;11.00;;;11.50;99.90;;;;;;4725550;30;20176;-82
2020/12/13 03:15:32;;;;;;;13.07;11.67;;;11.50;99.90;;;;;;4734812;30;20684;-82
2020/12/13 03:17:58;;;;;;;13.57;11.60;;;11.50;99.90;;;;;;4750571;30;21185;-82
2020/12/13 03:20:24;;;;;;;13.43;11.60;;;11.50;99.90;;;;;;4750661;30;20584;-82
2020/12/13 03:22:50;;;;;;;12.50;11.25;;;11.50;99.90;;;;;;4750928;30;20176;-82
2020/12/13 03:25:16;;;;;;;13.50;10.43;;;11.50;99.90;;;;;;4750713;30;20215;-82
2020/12/13 03:27:43;;;;;;;10.80;9.80;;;11.50;99.90;;;;;;4734044;30;20601;-82
2020/12/13 03:30:09;;;;;;;11.70;10.60;;;11.50;99.90;;;;;;4748887;30;20279;-82
2020/12/13 03:32:36;;;;;;;13.27;11.97;;;11.50;99.90;;;;;;4734561;30;20599;-82
2020/12/13 03:35:05;;;;;;;11.32;10.23;;;11.50;99.90;;;;;;4745340;30;20618;-82
2020/12/13 03:37:31;;;;;;;11.55;10.25;;;11.40;99.90;;;;;;4749747;30;20184;-82
2020/12/13 03:39:57;;;;;;;11.57;10.30;;;11.40;99.90;;;;;;4750142;30;20168;-82
2020/12/13 03:42:23;;;;;;;11.25;10.15;;;11.50;99.90;;;;;;4749730;30;20203;-82
2020/12/13 03:44:49;;;;;;;11.20;10.10;;;11.40;99.90;;;;;;4750055;30;20192;-82
2020/12/13 03:47:15;;;;;;;11.43;10.20;;;11.40;99.90;;;;;;4733909;30;20179;-82
2020/12/13 03:49:41;;;;;;;12.50;11.20;;;11.40;99.90;;;;;;4750286;30;20574;-82
2020/12/13 03:52:06;;;;;;;11.50;10.30;;;11.40;99.90;;;;;;4753078;30;20211;-82
2020/12/13 03:54:32;;;;;;;11.30;10.20;;;11.40;99.90;;;;;;4734216;30;20192;-83
2020/12/13 03:56:58;;;;;;;11.00;9.37;;;11.40;99.90;;;;;;4749965;30;20582;-83
2020/12/13 03:59:24;;;;;;;12.13;10.70;;;11.40;99.90;;;;;;4749614;30;20602;-83
2020/12/13 04:01:50;;;;;;;11.20;10.00;;;11.40;99.90;;;;;;4749926;30;20593;-82
2020/12/13 04:04:15;;;;;;;12.20;11.00;;;11.40;99.90;;;;;;4734324;30;20188;-82
2020/12/13 04:06:41;;;;;;;11.47;10.27;;;11.40;99.90;;;;;;4749917;30;20191;-82
2020/12/13 04:09:07;;;;;;;12.50;9.90;;;11.40;99.90;;;;;;4733671;30;20183;-82
2020/12/13 04:11:33;;;;;;;11.10;10.00;;;11.40;99.90;;;;;;4749730;30;20346;-83
2020/12/13 04:14:02;;;;;;;11.20;9.15;;;11.40;99.90;;;;;;4749902;30;20251;-83
2020/12/13 04:16:31;;;;;;;12.60;9.83;;;11.40;99.90;;;;;;4749998;30;20298;-83
2020/12/13 04:18:56;;;;;;;11.32;10.13;;;11.40;99.90;;;;;;4750065;30;20578;-83
2020/12/13 04:21:24;;;;;;;12.40;9.10;;;11.40;99.90;;;;;;4734235;30;20190;-83
2020/12/13 04:23:49;;;;;;;10.80;9.07;;;11.40;99.90;;;;;;4750732;30;20578;-83
2020/12/13 04:26:15;;;;;;;10.10;9.10;;;11.40;99.90;;;;;;4749902;30;20207;-83
2020/12/13 04:28:41;;;;;;;11.70;9.17;;;11.40;99.90;;;;;;4753912;30;20655;-82
2020/12/13 04:31:07;;;;;;;9.50;8.30;;;11.40;99.90;;;;;;4749608;30;20641;-82
2020/12/13 04:33:33;;;;;;;8.50;7.60;;;11.40;99.90;;;;;;4749653;30;20592;-83
2020/12/13 04:35:58;;;;;;;10.53;7.80;;;11.40;99.90;;;;;;4749446;30;20675;-83
2020/12/13 04:38:24;;;;;;;9.13;8.10;;;11.40;99.90;;;;;;4749109;30;20184;-82
2020/12/13 04:40:50;;;;;;;9.57;8.30;;;11.40;99.90;;;;;;4733593;30;20179;-82
2020/12/13 04:43:16;;;;;;;8.40;7.60;;;11.40;99.90;;;;;;4750067;30;20266;-83
2020/12/13 04:45:42;;;;;;;7.80;7.00;;;11.40;99.90;;;;;;4749672;30;20264;-83
2020/12/13 04:48:09;;;;;;;9.65;7.05;;;11.40;99.90;;;;;;4749714;30;20757;-83
2020/12/13 04:50:39;;;;;;;10.15;7.85;;;11.40;99.90;;;;;;4718473;30;20304;-83
2020/12/13 04:53:09;;;;;;;8.68;7.78;;;11.40;99.90;;;;;;4733832;30;20188;-82
2020/12/13 04:55:57;;;;;;;8.13;6.20;;;11.40;99.90;;;;;;4749724;30;20234;-82
2020/12/13 04:58:25;;;;;;;5.38;4.88;;;11.40;99.90;;;;;;4749762;30;20183;-82
2020/12/13 05:00:59;;;;;;;6.70;5.68;;;11.40;99.90;;;;;;4749364;30;20188;-82
2020/12/13 05:03:27;;;;;;;6.50;5.93;;;11.40;99.90;;;;;;4749810;30;20186;-82
2020/12/13 05:05:58;;;;;;;5.32;4.82;;;11.40;99.90;;;;;;4752099;30;20359;-82
2020/12/13 05:08:28;;;;;;;6.20;5.05;;;11.40;99.90;;;;;;4749348;30;20188;-82
2020/12/13 05:10:55;;;;;;;6.18;5.65;;;11.40;99.90;;;;;;4747922;30;20216;-81
2020/12/13 05:13:20;;;;;;;7.35;5.30;;;11.40;99.90;;;;;;4733307;30;20191;-82
2020/12/13 05:15:46;;;;;;;5.93;5.43;;;11.30;99.90;;;;;;4747912;30;20192;-82
2020/12/13 05:18:12;;;;;;;5.57;4.97;;;11.30;99.90;;;;;;4731856;30;20587;-82
2020/12/13 05:20:38;;;;;;;5.57;5.07;;;11.30;99.90;;;;;;4748843;30;20180;-82
2020/12/13 05:23:04;;;;;;;6.77;6.17;;;11.30;99.90;;;;;;4749133;30;20685;-83
2020/12/13 05:25:35;;;;;;;6.07;5.57;;;11.30;99.90;;;;;;4747868;30;20385;-83
2020/12/13 05:28:07;;;;;;;5.45;4.95;;;11.30;99.90;;;;;;4748512;30;20191;-82
2020/12/13 05:30:37;;;;;;;6.00;5.50;;;11.30;99.90;;;;;;4749041;30;20215;-82
2020/12/13 05:33:10;;;;;;;6.68;6.07;;;11.20;99.90;;;;;;4733506;30;20213;-82
2020/12/13 05:35:36;;;;;;;6.95;6.35;;;11.30;99.90;;;;;;4748952;30;20234;-83
2020/12/13 05:38:12;;;;;;;7.10;6.40;;;11.20;99.90;;;;;;4748574;30;20199;-82
2020/12/13 05:40:39;;;;;;;7.22;6.30;;;11.20;99.90;;;;;;4750869;30;20585;-81
2020/12/13 05:43:11;;;;;;;5.97;5.40;;;11.20;99.90;;;;;;4757115;30;20766;-81
2020/12/13 05:46:03;;;;;;;7.30;6.60;;;11.20;99.90;;;;;;4752169;30;20249;-81
2020/12/13 05:53:35;;;;;;;9.15;7.40;;;11.10;99.90;;;;;;4721828;30;20179;-82
2020/12/13 05:56:03;;;;;;;7.65;6.95;;;11.10;99.90;;;;;;4721858;30;20207;-82
2020/12/13 05:58:30;;;;;;;7.05;6.35;;;11.10;99.90;;;;;;4752136;30;20180;-81
2020/12/13 06:00:57;;;;;;;7.68;6.45;;;11.10;99.90;;;;;;4736027;30;20262;-83
2020/12/13 06:03:37;;;;;;;6.13;5.63;;;11.00;99.90;;;;;;4752083;30;20188;-83
2020/12/13 06:06:08;;;;;;;6.10;5.60;;;11.00;99.90;;;;;;4758034;30;20876;-82
2020/12/13 06:09:05;;;;;;;6.38;5.78;;;11.00;99.90;;;;;;4752770;30;20251;-82
2020/12/13 06:11:40;;;;;;;7.80;6.43;;;11.00;99.90;;;;;;4736309;30;20285;-82
2020/12/13 06:14:23;;;;;;;7.22;6.30;;;11.00;99.90;;;;;;4752077;30;20172;-82
2020/12/13 06:16:49;;;;;;;6.65;6.05;;;11.00;99.90;;;;;;4751713;30;20186;-81
2020/12/13 06:19:19;;;;;;;6.45;5.85;;;11.10;99.90;;;;;;4755618;30;20186;-82
2020/12/13 06:21:46;;;;;;;6.88;6.28;;;11.00;99.90;;;;;;4752207;30;20274;-82
2020/12/13 06:24:13;;;;;;;7.85;6.20;;;11.00;99.90;;;;;;4735964;30;20275;-82
2020/12/13 06:26:40;;;;;;;6.10;5.53;;;11.00;99.90;;;;;;4751655;30;20317;-82
2020/12/13 06:29:06;;;;;;;6.97;6.35;;;11.00;99.90;;;;;;4751187;30;20630;-82
2020/12/13 06:31:34;;;;;;;9.23;6.57;;;11.00;99.90;;;;;;4748825;30;20285;-82
2020/12/13 06:34:01;;;;;;;6.38;5.78;;;10.90;99.90;;;;;;4750503;30;20216;-83
2020/12/13 06:36:27;;;;;;;8.02;7.03;;;10.90;99.90;;;;;;4745723;30;20220;-83
2020/12/13 06:38:56;;;;;;;7.75;6.82;;;10.90;99.90;;;;;;4725134;30;20273;-83
2020/12/13 06:41:26;;;;;;;7.63;6.35;;;10.90;99.90;;;;;;4741436;30;20574;-83
2020/12/13 06:43:57;;;;;;;6.93;6.20;;;10.90;99.90;;;;;;4740742;30;20657;-83
2020/12/13 06:46:27;;;;;;;7.82;7.13;;;10.80;99.90;;;;;;4746041;30;20253;-82
2020/12/13 06:48:53;;;;;;;8.48;6.80;;;10.80;99.90;;;;;;4742377;30;20191;-81
2020/12/13 06:51:27;;;;;;;9.32;6.55;;;10.80;99.90;;;;;;4758143;30;20681;-82
2020/12/13 06:53:53;;;;;;;8.32;7.47;;;10.80;99.90;;;;;;4735291;30;20187;-82
2020/12/13 06:56:20;;;;;;;7.20;6.50;;;10.70;99.90;;;;;;4736411;30;20203;-81
2020/12/13 06:58:56;;;;;;;8.15;6.53;;;10.70;99.90;;;;;;4750402;30;20534;-81
2020/12/13 07:01:28;;;;;;;8.35;7.55;;;10.70;99.90;;;;;;4750524;30;20604;-82
2020/12/13 07:03:58;;;;;;;8.57;6.82;;;10.70;99.90;;;;;;4750591;30;20551;-81
2020/12/13 07:06:41;;;;;;;8.32;7.50;;;10.60;99.90;;;;;;4750497;30;20199;-82
2020/12/13 07:09:07;;;;;;;7.65;6.95;;;10.60;99.90;;;;;;4750118;30;20187;-82
2020/12/13 07:11:33;;;;;;;12.07;7.33;;;10.60;99.90;;;;;;4743725;30;20230;-82
2020/12/13 07:14:08;;;;;;;8.93;7.78;;;10.50;99.90;;;;;;4768271;30;20569;-83
2020/12/13 07:16:39;;;;;;;12.05;7.65;;;10.50;99.90;;;;;;4768163;30;20203;-82
2020/12/13 07:19:10;;;;;;;9.35;7.88;;;10.50;99.90;;;;;;4768063;30;20614;-82
2020/12/13 07:21:38;;;;;;;11.95;8.00;;;10.50;99.90;;;;;;4744378;30;20657;-82
2020/12/13 07:24:05;;;;;;;9.23;7.57;;;10.50;99.90;;;;;;4750326;30;20211;-82
2020/12/13 07:26:33;;;;;;;10.35;7.75;;;10.50;99.90;;;;;;4748962;30;20563;-82
2020/12/13 07:29:00;;;;;;;10.80;8.50;;;10.40;99.90;;;;;;4733555;30;20274;-82
2020/12/13 07:31:35;;;;;;;11.00;9.18;;;10.40;99.90;;;;;;4733861;30;20211;-82
2020/12/13 07:34:05;;;;;;;10.00;8.55;;;10.50;99.90;;;;;;4734487;30;20303;-83
2020/12/13 07:36:33;;;;;;;9.98;7.35;;;10.50;99.90;;;;;;4751575;30;20321;-82
2020/12/13 07:39:01;;;;;;;10.60;7.53;;;10.40;99.90;;;;;;4748609;30;20182;-82
2020/12/13 07:41:27;;;;;;;12.90;8.13;;;10.50;99.90;;;;;;4757769;30;20275;-82
2020/12/13 07:44:00;;;;;;;10.07;8.37;;;10.40;99.90;;;;;;4759129;30;20286;-82
2020/12/13 07:46:30;;;;;;;10.80;8.02;;;10.40;99.90;;;;;;4762190;30;20641;-83
2020/12/13 07:49:10;;;;;;;8.77;7.28;;;10.40;99.90;;;;;;4755444;30;20184;-82
2020/12/13 07:51:41;;;;;;;17.15;7.85;;;10.40;99.90;;;;;;4742156;30;20619;-82
2020/12/13 07:54:18;;;;;;;10.68;8.45;;;10.40;99.90;;;;;;4750484;30;20176;-82
2020/12/13 07:56:52;;;;;;;8.75;7.35;;;10.40;99.90;;;;;;4737286;30;20174;-83
2020/12/13 07:59:23;;;;;;;13.57;9.48;;;10.40;99.90;;;;;;4762345;30;20623;-81
2020/12/13 08:01:53;;;;;;;9.23;7.00;;;10.40;99.90;;;;;;4749891;30;20189;-81
2020/12/13 08:04:41;;;;;;;16.27;8.15;;;10.40;99.90;;;;;;4749893;30;20184;-81
2020/12/13 08:07:11;;;;;;;13.52;8.15;;;10.50;99.90;;;;;;4749071;30;20180;-82
2020/12/13 08:09:40;;;;;;;11.88;7.38;;;10.50;99.90;;;;;;4763530;30;20278;-81
2020/12/13 08:12:06;;;;;;;12.23;8.20;;;10.50;99.90;;;;;;4767798;30;20221;-81
2020/12/13 08:14:32;;;;;;;7.68;6.88;;;10.50;99.90;;;;;;4767138;30;20175;-80
2020/12/13 08:16:58;;;;;;;9.95;7.07;;;10.50;99.90;;;;;;4767450;30;20187;-80
2020/12/13 08:19:37;;;;;;;13.30;7.93;;;10.50;99.90;;;;;;4764738;30;20603;-80
2020/12/13 08:22:23;;;;;;;11.82;7.93;;;10.50;99.90;;;;;;4749645;30;20235;-80
2020/12/13 08:25:00;;;;;;;10.20;8.38;;;10.50;99.90;;;;;;4749641;30;20213;-81
2020/12/13 08:27:29;;;;;;;8.93;6.90;;;10.60;99.90;;;;;;4747713;30;20287;-82
2020/12/13 08:29:57;;;;;;;9.82;7.20;;;10.60;99.90;;;;;;4755283;30;20183;-82
2020/12/13 08:32:28;;;;;;;10.18;8.10;;;10.60;99.90;;;;;;4757632;30;20227;-82
2020/12/13 08:34:54;;;;;;;10.63;7.90;;;10.60;99.90;;;;;;4737054;30;20254;-79
2020/12/13 08:37:24;;;;;;;8.23;6.70;;;10.60;99.90;;;;;;4747030;30;20207;-79
2020/12/13 08:39:52;;;;;;;13.10;8.02;;;10.70;99.90;;;;;;4733799;30;20184;-80
2020/12/13 08:42:24;;;;;;;9.70;6.50;;;10.70;99.90;;;;;;4746809;30;20196;-81
2020/12/13 08:44:50;;;;;;;8.10;6.88;;;10.80;99.90;;;;;;4742474;30;20271;-79
2020/12/13 08:47:18;;;;;;;9.32;7.40;;;10.90;99.90;;;;;;4767177;30;20304;-79
2020/12/13 08:49:47;;;;;;;8.25;7.45;;;10.90;99.90;;;;;;4758109;30;20190;-79
2020/12/13 08:52:33;;;;;;;10.45;7.10;;;11.00;99.90;;;;;;4766635;30;20305;-79
2020/12/13 08:55:05;;;;;;;10.35;6.65;;;11.10;99.90;;;;;;4736344;30;20236;-79
2020/12/13 08:57:47;;;;;;;7.45;6.75;;;11.20;99.90;;;;;;4766443;30;20211;-79
2020/12/13 09:00:17;;;;;;;7.93;7.03;;;11.20;99.90;;;;;;4766898;30;20210;-78
2020/12/13 09:02:55;;;;;;;7.15;6.45;;;11.30;99.90;;;;;;4767315;30;20565;-79
2020/12/13 09:05:26;;;;;;;7.70;7.00;;;11.30;99.90;;;;;;4750865;30;20347;-79
2020/12/13 09:07:53;;;;;;;9.45;6.70;;;11.40;99.90;;;;;;4766645;30;20596;-79
2020/12/13 09:10:20;;;;;;;8.07;7.20;;;11.50;99.90;;;;;;4766693;30;20183;-81
2020/12/13 09:12:53;;;;;;;7.75;6.07;;;11.60;99.90;;;;;;4751631;30;20183;-78
2020/12/13 09:15:23;;;;;;;8.63;5.75;;;11.60;99.90;;;;;;4769088;30;20204;-78
2020/12/13 09:17:56;;;;;;;7.35;5.80;;;11.70;99.90;;;;;;4737058;30;20179;-79
2020/12/13 09:20:31;;;;;;;6.68;5.30;;;11.80;99.90;;;;;;4737337;30;20245;-78
2020/12/13 09:23:07;;;;;;;6.25;5.65;;;11.80;99.90;;;;;;4753356;30;20636;-79
2020/12/13 09:25:37;;;;;;;6.53;5.55;;;11.90;99.90;;;;;;4753644;30;20230;-79
2020/12/13 09:28:03;;;;;;;10.82;5.20;;;11.90;99.90;;;;;;4753948;30;20188;-79
2020/12/13 09:30:30;;;;;;;5.70;5.15;;;11.90;99.90;;;;;;4752536;30;20211;-79
2020/12/13 09:32:55;;;;;;;6.80;4.55;;;12.00;99.90;;;;;;4752570;30;20170;-79
2020/12/13 09:35:21;;;;;;;5.47;4.27;;;12.00;99.90;;;;;;4752352;30;20261;-79
2020/12/13 09:37:47;;;;;;;4.80;4.30;;;12.10;99.90;;;;;;4751815;30;20207;-79
2020/12/13 09:40:13;;;;;;;6.30;4.00;;;12.10;99.90;;;;;;4752047;30;20179;-79
2020/12/13 09:42:39;;;;;;;4.77;4.30;;;12.10;99.90;;;;;;4764525;30;21037;-79
2020/12/13 09:45:05;;;;;;;5.05;4.38;;;12.10;99.90;;;;;;4769811;30;20724;-79
2020/12/13 09:47:31;;;;;;;6.95;3.75;;;12.00;99.90;;;;;;4769738;30;20638;-80
2020/12/13 09:49:59;;;;;;;4.20;3.80;;;12.00;99.90;;;;;;4753860;30;20171;-79
2020/12/13 09:52:25;;;;;;;3.10;2.90;;;12.00;99.90;;;;;;4769469;30;20261;-79
2020/12/13 09:54:52;;;;;;;3.35;3.05;;;12.00;99.90;;;;;;4770043;30;20286;-78
2020/12/13 09:57:20;;;;;;;3.40;2.65;;;12.00;99.90;;;;;;4737064;30;20191;-81
2020/12/13 09:59:46;;;;;;;3.20;2.70;;;12.00;99.90;;;;;;4736676;30;20168;-78
2020/12/13 10:02:12;;;;;;;3.77;3.30;;;12.00;99.90;;;;;;4752138;30;20291;-77
2020/12/13 10:04:38;;;;;;;3.00;2.20;;;12.00;99.90;;;;;;4752582;30;20202;-78
2020/12/13 10:09:35;;;;;;;2.88;2.58;;;12.10;99.90;;;;;;4751676;30;20180;-78
2020/12/13 10:12:01;;;;;;;3.93;2.57;;;12.10;99.90;;;;;;4751731;30;20215;-78
2020/12/13 10:14:27;;;;;;;4.50;2.77;;;12.10;99.90;;;;;;4757641;30;20190;-78
2020/12/13 10:16:54;;;;;;;2.50;2.03;;;12.10;99.90;;;;;;4769603;30;20577;-78
2020/12/13 10:19:20;;;;;;;5.85;2.67;;;12.10;99.90;;;;;;4769519;30;20569;-79
2020/12/13 10:21:46;;;;;;;3.38;3.03;;;12.20;99.90;;;;;;4769541;30;20183;-80
2020/12/13 10:24:12;;;;;;;3.03;2.80;;;12.20;99.90;;;;;;4770056;30;20179;-80
2020/12/13 10:26:39;;;;;;;7.00;3.40;;;12.20;99.90;;;;;;4769449;30;20230;-78
2020/12/13 10:29:07;;;;;;;4.00;2.70;;;12.30;99.90;;;;;;4754271;30;20179;-78
2020/12/13 10:31:35;;;;;;;3.20;2.50;;;12.30;99.90;;;;;;4769551;30;20210;-79
2020/12/13 10:34:02;;;;;;;4.07;2.40;;;12.40;99.90;;;;;;4763888;30;20211;-79
2020/12/13 10:36:31;;;;;;;3.00;2.20;;;12.40;99.90;;;;;;4751467;30;20206;-79
2020/12/13 10:38:57;;;;;;;2.13;1.77;;;12.40;99.90;;;;;;4750871;30;20270;-80
2020/12/13 10:41:23;;;;;;;4.05;2.05;;;12.50;99.90;;;;;;4752475;30;20175;-80
2020/12/13 10:43:50;;;;;;;4.27;2.50;;;12.50;99.90;;;;;;4751327;30;20176;-80
2020/12/13 10:46:17;;;;;;;3.10;2.63;;;12.50;99.90;;;;;;4751276;30;20210;-80
2020/12/13 10:48:43;;;;;;;3.45;2.55;;;12.60;99.90;;;;;;4750606;30;20184;-80
2020/12/13 10:51:08;;;;;;;3.00;2.00;;;12.60;99.90;;;;;;4750741;30;20581;-80
2020/12/13 10:53:36;;;;;;;3.28;1.98;;;12.60;99.90;;;;;;4751026;30;20204;-80
2020/12/13 10:56:05;;;;;;;8.52;1.80;;;12.70;99.90;;;;;;4749861;30;20231;-80
2020/12/13 10:58:32;;;;;;;4.25;1.40;;;12.70;99.90;;;;;;4751565;30;20271;-80
2020/12/13 11:00:57;;;;;;;3.67;2.37;;;12.80;99.90;;;;;;4750907;30;20258;-80
2020/12/13 11:03:34;;;;;;;2.97;1.40;;;12.80;99.90;;;;;;4735860;30;20586;-80
2020/12/13 11:07:16;;;;;;;;;;;;;;;;;;;;;
2020/12/13 11:10:31;;;;;;;5.10;1.52;;;12.90;99.90;;;;;;4734312;30;20885;-80
2020/12/13 11:13:20;;;;;;;3.58;1.65;;;13.00;99.90;;;;;;4751078;30;20184;-79
2020/12/13 11:16:22;;;;;;;5.03;1.45;;;13.10;99.90;;;;;;4750700;30;20286;-79
2020/12/13 11:19:58;;;;;;;4.30;2.10;;;13.10;99.90;;;;;;4749097;30;20746;-79
2020/12/13 11:23:09;;;;;;;2.72;1.40;;;13.00;99.90;;;;;;4750925;30;20287;-80
2020/12/13 11:26:29;;;;;;;2.25;1.83;;;13.10;99.90;;;;;;4720924;30;20575;-80
2020/12/13 11:29:35;;;;;;;2.17;1.40;;;13.20;99.90;;;;;;4748835;30;20597;-79
2020/12/13 11:32:10;;;;;;;2.38;1.70;;;13.30;99.90;;;;;;4736889;30;20219;-79
2020/12/13 11:35:02;;;;;;;2.45;1.33;;;13.30;99.90;;;;;;4726367;30;20208;-80
2020/12/13 11:37:36;;;;;;;2.63;2.17;;;13.30;99.90;;;;;;4748850;30;20735;-79
2020/12/13 11:40:16;;;;;;;3.25;1.60;;;13.20;99.90;;;;;;4734040;30;20236;-80
2020/12/13 11:42:56;;;;;;;2.00;1.30;;;13.20;99.90;;;;;;4750206;30;20178;-80
2020/12/13 11:46:04;;;;;;;1.90;0.90;;;13.30;99.90;;;;;;4750224;30;20206;-79
2020/12/13 11:48:36;;;;;;;1.50;1.13;;;13.40;99.90;;;;;;4749774;30;20605;-80
2020/12/13 11:51:16;;;;;;;1.40;1.10;;;13.40;99.90;;;;;;4732255;30;20276;-80
2020/12/13 11:54:21;;;;;;;1.93;0.90;;;13.30;99.90;;;;;;4749977;30;20179;-80
2020/12/13 11:56:54;;;;;;;2.03;0.80;;;13.30;99.90;;;;;;4750909;30;20585;-79
2020/12/13 11:59:27;;;;;;;2.05;1.00;;;13.30;99.90;;;;;;4734175;30;20902;-79
2020/12/13 12:01:59;;;;;;;2.95;0.90;;;13.20;99.90;;;;;;4719321;30;20193;-79
2020/12/13 12:04:56;;;;;;;1.48;0.85;;;13.20;99.90;;;;;;4707708;30;20585;-80
2020/12/13 12:07:53;;;;;;;2.40;0.82;;;13.20;99.90;;;;;;4703142;30;20195;-81
2020/12/13 12:10:28;;;;;;;1.33;0.60;;;13.10;99.90;;;;;;4705625;30;20212;-80
2020/12/13 12:12:59;;;;;;;4.00;0.70;;;13.00;99.90;;;;;;4733916;30;20184;-80
2020/12/13 12:18:53;;;;;;;2.53;0.70;;;12.80;99.90;;;;;;4719474;30;20250;-80
2020/12/13 12:21:50;;;;;;;1.55;0.80;;;12.80;99.90;;;;;;4710426;30;20199;-80
2020/12/13 12:24:49;;;;;;;;;;;;;;;;;;;;;
2020/12/13 12:27:48;;;;;;;2.30;1.00;;;12.70;99.90;;;;;;4719534;30;20658;-80
2020/12/13 12:30:19;;;;;;;2.33;0.70;;;12.80;99.90;;;;;;4704247;30;20184;-80
2020/12/13 12:33:19;;;;;;;2.17;1.30;;;12.80;99.90;;;;;;4736379;30;20278;-80
2020/12/13 12:36:04;;;;;;;1.60;0.90;;;12.80;99.90;;;;;;4719343;30;20272;-79
2020/12/13 12:38:38;;;;;;;2.25;1.00;;;12.80;99.90;;;;;;4718504;30;20522;-79
2020/12/13 12:41:21;;;;;;;3.47;1.60;;;12.80;99.90;;;;;;4719430;30;20657;-80
2020/12/13 12:44:13;;;;;;;5.22;1.30;;;12.80;99.90;;;;;;4706303;30;20709;-80
2020/12/13 12:46:51;;;;;;;2.53;1.08;;;12.80;99.90;;;;;;4719670;30;20227;-80
2020/12/13 12:49:28;;;;;;;3.15;1.55;;;12.80;99.90;;;;;;4718953;30;20200;-80
2020/12/13 12:52:21;;;;;;;3.25;1.65;;;12.90;99.90;;;;;;4722567;30;20211;-79
2020/12/13 12:54:55;;;;;;;1.88;0.80;;;12.90;99.90;;;;;;4709160;30;20214;-80
2020/12/13 12:57:39;;;;;;;2.47;0.90;;;12.90;99.90;;;;;;4709575;30;20654;-79
2020/12/13 13:00:42;;;;;;;2.53;0.80;;;13.00;99.90;;;;;;4709941;30;20199;-82
2020/12/13 13:03:09;;;;;;;2.05;0.70;;;13.00;99.90;;;;;;4720959;30;20249;-80
2020/12/13 13:11:35;;;;;;;2.03;0.60;;;13.10;99.90;;;;;;4737579;30;20217;-81
2020/12/13 13:14:18;;;;;;;1.67;0.80;;;13.10;99.90;;;;;;4693278;30;20583;-81
2020/12/13 13:16:47;;;;;;;1.60;0.80;;;13.10;99.90;;;;;;4691343;30;20273;-81
2020/12/13 13:19:19;;;;;;;1.80;0.80;;;13.20;99.90;;;;;;4704286;30;20191;-80
2020/12/13 13:21:46;;;;;;;4.05;0.98;;;13.20;99.90;;;;;;4690183;30;20181;-81